Time;durP1;ratioP1;P1;durP2;ratioP2;P2;SDS_P1;SDS_P2;PMS_P1;PMS_P2;Temp;Humidity;BMP_temperature;BMP_pressure;BME280_temperature;BME280_humidity;BME280_pressure;Samples;Min_cycle;Max_cycle;Signal;HPM_P1;HPM_P2
2022/01/11 00:01:01;;;;;;;396.10;41.92;;;;;;;1.32;100.00;102043.63;8366522;28;20055;-64
2022/01/11 00:05:01;;;;;;;332.65;33.83;;;;;;;1.30;100.00;102044.56;8366899;28;20037;-64
2022/01/11 00:09:08;;;;;;;358.42;32.22;;;;;;;1.13;100.00;102038.88;8352051;28;20048;-64
2022/01/11 00:13:08;;;;;;;357.05;34.35;;;;;;;1.08;100.00;102051.44;8350109;28;20037;-64
2022/01/11 00:17:09;;;;;;;321.17;32.30;;;;;;;1.09;100.00;102053.19;8367092;28;20089;-64
2022/01/11 00:21:10;;;;;;;267.05;30.30;;;;;;;1.12;100.00;102053.09;8366889;28;20047;-64
2022/01/11 00:25:10;;;;;;;353.85;36.90;;;;;;;1.19;100.00;102057.34;8365530;28;20119;-64
2022/01/11 00:29:10;;;;;;;406.80;40.97;;;;;;;1.15;100.00;102053.00;8366546;28;20033;-64
2022/01/11 00:33:17;;;;;;;355.05;36.17;;;;;;;1.12;100.00;102053.97;8365336;28;20031;-64
2022/01/11 00:37:20;;;;;;;490.25;42.75;;;;;;;1.05;100.00;102063.06;8364327;28;20112;-64
2022/01/11 00:41:20;;;;;;;397.42;40.53;;;;;;;1.08;100.00;102056.78;8363442;28;20115;-64
2022/01/11 00:45:20;;;;;;;384.27;39.85;;;;;;;1.09;100.00;102070.03;8362861;28;20045;-64
2022/01/11 00:49:21;;;;;;;349.92;33.55;;;;;;;1.12;100.00;102063.75;8365943;28;20029;-64
2022/01/11 00:53:22;;;;;;;346.10;38.47;;;;;;;1.14;100.00;102064.59;8368574;28;20094;-64
2022/01/11 00:57:23;;;;;;;346.65;36.60;;;;;;;1.16;100.00;102058.28;8365135;28;20033;-64
2022/01/11 01:01:24;;;;;;;195.95;25.35;;;;;;;1.16;100.00;102065.44;8356965;28;20051;-64
2022/01/11 01:05:24;;;;;;;275.98;27.02;;;;;;;1.13;100.00;102071.69;8356535;28;20403;-64
2022/01/11 01:09:32;;;;;;;244.52;26.75;;;;;;;1.15;100.00;102063.66;8364465;28;20420;-64
2022/01/11 01:13:33;;;;;;;256.65;27.90;;;;;;;1.12;100.00;102074.41;8370527;28;20033;-64
2022/01/11 01:17:33;;;;;;;307.50;32.15;;;;;;;1.05;100.00;102072.84;8371188;28;20037;-64
2022/01/11 01:21:37;;;;;;;205.35;28.52;;;;;;;1.04;100.00;102076.44;8372319;28;20083;-64
2022/01/11 01:25:40;;;;;;;384.35;36.78;;;;;;;0.94;100.00;102077.56;8372472;28;20060;-64
2022/01/11 01:29:41;;;;;;;388.55;37.30;;;;;;;1.02;100.00;102078.25;8371830;28;20374;-64
2022/01/11 01:33:41;;;;;;;392.65;42.70;;;;;;;1.04;100.00;102089.75;8387996;28;20029;-64
2022/01/11 01:37:42;;;;;;;314.95;36.75;;;;;;;1.14;100.00;102093.88;8373392;28;20504;-64
2022/01/11 01:41:44;;;;;;;284.38;34.22;;;;;;;1.20;100.00;102105.25;8372564;28;20033;-64
2022/01/11 01:45:45;;;;;;;244.43;31.42;;;;;;;1.21;100.00;102100.78;8370910;28;20037;-64
2022/01/11 01:49:46;;;;;;;313.35;34.15;;;;;;;1.09;100.00;102106.44;8361622;28;20119;-64
2022/01/11 01:53:49;;;;;;;372.73;37.03;;;;;;;1.14;100.00;102113.41;8372298;28;20033;-64
2022/01/11 01:57:51;;;;;;;214.10;28.55;;;;;;;1.16;100.00;102111.56;8372992;28;20033;-64
2022/01/11 02:01:52;;;;;;;193.15;28.75;;;;;;;1.20;100.00;102120.34;8372696;28;20136;-64
2022/01/11 02:05:54;;;;;;;182.70;27.15;;;;;;;1.16;100.00;102129.34;8370644;28;20440;-64
2022/01/11 02:09:55;;;;;;;146.45;25.38;;;;;;;1.16;100.00;102145.31;8371407;28;20037;-64
2022/01/11 02:13:56;;;;;;;152.05;23.45;;;;;;;1.11;100.00;102139.25;8371558;28;20033;-64
2022/01/11 02:18:08;;;;;;;171.02;27.50;;;;;;;0.96;100.00;102142.31;8371436;28;20381;-64
2022/01/11 02:22:08;;;;;;;214.70;30.63;;;;;;;0.94;100.00;102144.13;8366727;28;20029;-64
2022/01/11 02:26:09;;;;;;;249.23;32.53;;;;;;;0.92;100.00;102145.97;8358834;28;20549;-64
2022/01/11 02:30:10;;;;;;;196.82;24.58;;;;;;;0.84;100.00;102151.50;8368793;28;20546;-64
2022/01/11 02:34:10;;;;;;;182.77;22.02;;;;;;;0.81;100.00;102148.03;8370462;28;20033;-64
2022/01/11 02:38:11;;;;;;;180.00;25.00;;;;;;;0.79;100.00;102149.88;8363282;28;20033;-64
2022/01/11 02:42:11;;;;;;;208.75;25.77;;;;;;;0.72;100.00;102159.78;8363676;28;20040;-64
2022/01/11 02:46:12;;;;;;;271.80;29.40;;;;;;;0.78;100.00;102153.44;8370912;28;20038;-64
2022/01/11 02:50:15;;;;;;;163.00;24.42;;;;;;;0.86;100.00;102156.78;8370754;28;20033;-64
2022/01/11 02:54:15;;;;;;;203.68;25.90;;;;;;;0.79;100.00;102155.19;8365189;28;20041;-64
2022/01/11 02:58:16;;;;;;;144.88;22.55;;;;;;;0.65;100.00;102162.66;8360056;28;20029;-64
2022/01/11 03:02:16;;;;;;;225.77;25.92;;;;;;;0.52;100.00;102150.56;8336336;28;20041;-64
2022/01/11 03:06:17;;;;;;;290.02;32.10;;;;;;;0.52;100.00;102155.88;8336334;28;20042;-64
2022/01/11 03:10:28;;;;;;;182.70;23.55;;;;;;;0.57;100.00;102159.28;8347110;28;20037;-64
2022/01/11 03:14:29;;;;;;;222.55;26.08;;;;;;;0.56;100.00;102157.56;8367894;28;20092;-64
2022/01/11 03:18:29;;;;;;;235.32;27.77;;;;;;;0.57;100.00;102151.31;8369633;28;20037;-64
2022/01/11 03:22:29;;;;;;;160.93;19.50;;;;;;;0.56;100.00;102157.56;8368097;28;20040;-64
2022/01/11 03:26:30;;;;;;;197.38;20.95;;;;;;;0.53;100.00;102157.63;8369515;28;20110;-64
2022/01/11 03:30:31;;;;;;;207.57;24.83;;;;;;;0.51;100.00;102162.09;8363364;28;20092;-64
2022/01/11 03:34:31;;;;;;;200.57;22.55;;;;;;;0.45;100.00;102164.94;8361139;28;20025;-64
2022/01/11 03:38:33;;;;;;;213.80;25.70;;;;;;;0.41;100.00;102173.88;8358275;28;20037;-64
2022/01/11 03:42:33;;;;;;;285.20;26.48;;;;;;;0.33;100.00;102170.53;8369404;28;20052;-64
2022/01/11 03:46:34;;;;;;;217.93;24.95;;;;;;;0.35;100.00;102176.69;8367975;28;20048;-64
2022/01/11 03:50:35;;;;;;;140.65;19.08;;;;;;;0.45;100.00;102171.09;8368798;28;20037;-64
2022/01/11 03:55:01;;;;;;;105.85;18.33;;;;;;;0.47;100.00;102179.94;8367602;28;20036;-64
2022/01/11 03:58:56;;;;;;;257.08;25.63;;;;;;;0.41;100.00;102189.84;8365359;28;20059;-64
2022/01/11 04:02:56;;;;;;;190.15;22.88;;;;;;;0.48;100.00;102178.13;8338533;28;20076;-64
2022/01/11 04:06:57;;;;;;;154.57;20.80;;;;;;;0.53;100.00;102184.22;8357542;28;20190;-64
2022/01/11 04:10:57;;;;;;;222.25;24.38;;;;;;;0.41;100.00;102200.47;8369225;28;20048;-64
2022/01/11 04:14:58;;;;;;;188.65;21.10;;;;;;;0.48;100.00;102199.41;8369212;28;20083;-64
2022/01/11 04:18:58;;;;;;;224.88;24.55;;;;;;;0.36;100.00;102199.72;8368793;28;20040;-64
2022/01/11 04:22:59;;;;;;;109.05;19.05;;;;;;;0.37;100.00;102194.38;8368097;28;20404;-64
2022/01/11 04:26:59;;;;;;;131.90;20.20;;;;;;;0.37;100.00;102193.50;8369292;28;20049;-64
2022/01/11 04:31:00;;;;;;;141.48;19.20;;;;;;;0.41;100.00;102189.84;8375195;28;20393;-64
2022/01/11 04:35:01;;;;;;;230.13;25.27;;;;;;;0.33;100.00;102189.16;8374570;28;20037;-64
2022/01/11 04:39:04;;;;;;;178.27;22.83;;;;;;;0.39;100.00;102197.00;8375532;28;20033;-63
2022/01/11 04:43:05;;;;;;;137.10;21.27;;;;;;;0.44;100.00;102184.44;8374653;28;20459;-64
2022/01/11 04:47:06;;;;;;;150.32;24.40;;;;;;;0.37;100.00;102185.50;8355779;28;20305;-64
2022/01/11 04:51:06;;;;;;;202.48;24.30;;;;;;;0.25;100.00;102181.34;8365602;28;20041;-64
2022/01/11 04:55:08;;;;;;;140.02;18.73;;;;;;;0.35;100.00;102182.00;8363705;28;20052;-63
2022/01/11 04:59:08;;;;;;;188.02;24.73;;;;;;;0.26;100.00;102190.19;8340891;28;20037;-62
2022/01/11 05:03:08;;;;;;;145.10;20.75;;;;;;;0.25;100.00;102188.44;8341186;28;20037;-62
2022/01/11 05:07:09;;;;;;;117.35;18.50;;;;;;;0.25;100.00;102199.09;8354899;28;20101;-62
2022/01/11 05:11:10;;;;;;;125.10;23.30;;;;;;;0.20;100.00;102200.97;8355608;28;20416;-62
2022/01/11 05:15:12;;;;;;;148.98;20.30;;;;;;;0.17;100.00;102196.59;8372706;28;20044;-62
2022/01/11 05:19:12;;;;;;;160.85;22.27;;;;;;;0.23;100.00;102206.22;8374324;28;20508;-62
2022/01/11 05:23:14;;;;;;;137.82;22.40;;;;;;;0.22;100.00;102209.78;8372598;28;20051;-62
2022/01/11 05:27:15;;;;;;;166.70;21.63;;;;;;;0.24;100.00;102208.84;8365621;28;20053;-62
2022/01/11 05:31:15;;;;;;;153.20;23.85;;;;;;;0.18;100.00;102208.97;8361343;28;20033;-62
2022/01/11 05:35:17;;;;;;;94.15;21.42;;;;;;;0.27;100.00;102213.25;8374083;28;20397;-62
2022/01/11 05:39:18;;;;;;;82.88;21.08;;;;;;;0.35;100.00;102219.25;8373120;28;20045;-62
2022/01/11 05:43:18;;;;;;;81.90;21.80;;;;;;;0.31;100.00;102210.47;8360759;28;20044;-62
2022/01/11 05:47:19;;;;;;;79.63;21.23;;;;;;;0.29;100.00;102219.38;8363743;28;20071;-62
2022/01/11 05:51:20;;;;;;;103.00;23.08;;;;;;;0.28;100.00;102220.28;8359301;28;20042;-62
2022/01/11 05:55:20;;;;;;;118.97;22.35;;;;;;;0.24;100.00;102229.25;8341656;28;20171;-62
2022/01/11 05:59:20;;;;;;;115.60;22.48;;;;;;;0.20;100.00;102222.25;8380194;28;20539;-62
2022/01/11 06:03:21;;;;;;;106.43;23.38;;;;;;;0.18;100.00;102240.03;8356078;28;20033;-62
2022/01/11 06:07:21;;;;;;;172.70;26.58;;;;;;;0.20;100.00;102240.84;8339620;28;20033;-62
2022/01/11 06:11:21;;;;;;;145.63;27.63;;;;;;;0.21;100.00;102237.31;8349087;28;20037;-62
2022/01/11 06:15:22;;;;;;;164.57;24.20;;;;;;;0.24;100.00;102234.59;8357994;28;20051;-62
2022/01/11 06:19:22;;;;;;;164.02;22.92;;;;;;;0.21;100.00;102235.50;8360069;28;20052;-62
2022/01/11 06:23:23;;;;;;;150.32;22.15;;;;;;;0.25;100.00;102238.97;8356140;28;20156;-62
2022/01/11 06:27:23;;;;;;;149.73;23.00;;;;;;;0.32;100.00;102237.94;8368773;28;20116;-62
2022/01/11 06:31:24;;;;;;;178.20;24.52;;;;;;;0.28;100.00;102246.88;8343492;28;20201;-63
2022/01/11 06:35:25;;;;;;;115.15;23.85;;;;;;;0.49;100.00;102249.94;8343432;28;20037;-63
2022/01/11 06:39:26;;;;;;;224.07;32.80;;;;;;;0.33;100.00;102253.84;8350795;28;20580;-63
2022/01/11 06:43:27;;;;;;;148.85;24.83;;;;;;;0.31;100.00;102257.47;8356375;28;20032;-63
2022/01/11 06:47:27;;;;;;;236.50;37.08;;;;;;;0.22;100.00;102253.22;8352391;28;20083;-63
2022/01/11 06:51:27;;;;;;;171.32;29.75;;;;;;;0.22;100.00;102255.88;8345412;28;20037;-63
2022/01/11 06:55:28;;;;;;;205.75;35.55;;;;;;;0.15;100.00;102253.38;8352410;28;20477;-63
2022/01/11 06:59:28;;;;;;;206.73;31.98;;;;;;;0.20;100.00;102256.81;8345124;28;20041;-63
2022/01/11 07:03:29;;;;;;;236.85;31.77;;;;;;;0.17;100.00;102260.41;8347665;28;20033;-63
2022/01/11 07:07:29;;;;;;;149.77;28.42;;;;;;;0.20;100.00;102271.00;8357762;28;20059;-63
2022/01/11 07:11:29;;;;;;;143.70;25.65;;;;;;;0.16;100.00;102268.44;8348150;28;20146;-63
2022/01/11 07:15:30;;;;;;;222.13;28.17;;;;;;;0.11;100.00;102280.94;8350477;28;20075;-63
2022/01/11 07:19:31;;;;;;;213.65;26.15;;;;;;;0.12;100.00;102282.69;8348114;28;20148;-63
2022/01/11 07:23:31;;;;;;;122.45;20.35;;;;;;;0.19;100.00;102281.66;8349016;28;20120;-63
2022/01/11 07:27:33;;;;;;;146.32;21.63;;;;;;;0.17;100.00;102276.38;8348241;28;20049;-63
2022/01/11 07:31:39;;;;;;;143.77;20.23;;;;;;;0.14;100.00;102291.50;8348225;28;20052;-63
2022/01/11 07:35:39;;;;;;;125.05;20.80;;;;;;;0.12;100.00;102294.19;8357022;28;20543;-63
2022/01/11 07:39:40;;;;;;;145.32;21.25;;;;;;;0.18;100.00;102293.22;8358890;28;20056;-63
2022/01/11 07:43:40;;;;;;;104.10;18.88;;;;;;;0.19;100.00;102300.28;8346809;28;20041;-63
2022/01/11 07:47:40;;;;;;;86.82;19.45;;;;;;;0.18;100.00;102303.84;8346211;28;20045;-63
2022/01/11 07:51:41;;;;;;;108.05;19.65;;;;;;;0.13;100.00;102311.91;8347676;28;20124;-63
2022/01/11 07:55:41;;;;;;;110.97;21.77;;;;;;;0.08;100.00;102318.22;8354103;28;20429;-63
2022/01/11 07:59:42;;;;;;;78.70;20.17;;;;;;;0.14;100.00;102320.75;8347413;28;20507;-63
2022/01/11 08:03:42;;;;;;;87.75;22.27;;;;;;;0.16;100.00;102332.25;8353131;28;20037;-63
2022/01/11 08:07:42;;;;;;;80.75;20.13;;;;;;;0.28;100.00;102332.00;8353560;28;20079;-63
2022/01/11 08:11:44;;;;;;;56.40;18.00;;;;;;;0.24;100.00;102335.63;8359981;28;20040;-63
2022/01/11 08:15:44;;;;;;;99.75;21.05;;;;;;;0.14;100.00;102324.28;8353752;28;20037;-62
2022/01/11 08:19:46;;;;;;;83.53;20.60;;;;;;;0.17;100.00;102329.56;8353937;28;20124;-62
2022/01/11 08:23:46;;;;;;;83.95;21.63;;;;;;;0.25;100.00;102337.38;8353590;28;20120;-62
2022/01/11 08:27:47;;;;;;;78.13;21.13;;;;;;;0.26;100.00;102336.47;8357532;28;20064;-62
2022/01/11 08:31:48;;;;;;;74.38;19.00;;;;;;;0.36;100.00;102330.06;8353243;28;20060;-62
2022/01/11 08:35:48;;;;;;;87.32;21.95;;;;;;;0.38;100.00;102322.91;8351458;28;20041;-62
2022/01/11 08:39:49;;;;;;;81.03;20.67;;;;;;;0.40;100.00;102327.31;8352253;28;20033;-62
2022/01/11 08:43:49;;;;;;;81.10;20.90;;;;;;;0.50;100.00;102330.63;8346835;28;20044;-62
2022/01/11 08:47:50;;;;;;;86.80;21.45;;;;;;;0.61;100.00;102332.13;8353070;28;20110;-62
2022/01/11 08:51:50;;;;;;;88.72;25.38;;;;;;;0.98;100.00;102348.19;8352722;28;20028;-62
2022/01/11 08:55:51;;;;;;;95.43;26.67;;;;;;;1.69;100.00;102350.81;8353036;28;20040;-62
2022/01/11 08:59:51;;;;;;;95.35;27.77;;;;;;;2.55;100.00;102344.81;8352820;28;20043;-62
2022/01/11 09:03:52;;;;;;;81.90;28.38;;;;;;;2.91;100.00;102352.59;8362710;28;20029;-62
2022/01/11 09:07:53;;;;;;;76.15;26.00;;;;;;;3.57;100.00;102353.09;8352240;28;20037;-62
2022/01/11 09:11:54;;;;;;;59.47;23.65;;;;;;;3.69;96.49;102360.69;8350243;28;20079;-62
2022/01/11 09:15:54;;;;;;;56.63;22.52;;;;;;;2.89;98.42;102366.91;8351363;28;20037;-62
2022/01/11 09:19:55;;;;;;;52.03;20.98;;;;;;;2.77;100.00;102360.16;8350946;28;20036;-61
2022/01/11 09:23:55;;;;;;;52.30;18.75;;;;;;;3.24;99.78;102356.91;8351423;28;20099;-61
2022/01/11 09:27:56;;;;;;;47.10;20.35;;;;;;;3.45;98.29;102364.19;8351970;28;20079;-61
2022/01/11 09:31:57;;;;;;;40.53;17.17;;;;;;;3.86;97.01;102363.69;8351013;28;20045;-62
2022/01/11 09:35:58;;;;;;;43.58;17.27;;;;;;;4.80;93.65;102363.75;8361804;28;20095;-61
2022/01/11 09:39:58;;;;;;;33.05;15.05;;;;;;;4.70;90.10;102361.50;8351246;28;20041;-62
2022/01/11 09:43:59;;;;;;;38.42;17.27;;;;;;;3.18;95.19;102359.75;8345070;28;20127;-62
2022/01/11 09:48:01;;;;;;;38.08;17.35;;;;;;;3.28;99.56;102365.66;8348275;28;20056;-62
2022/01/11 09:52:07;;;;;;;38.90;16.42;;;;;;;2.96;98.15;102365.81;8346475;28;20368;-62
2022/01/11 09:56:09;;;;;;;47.28;18.00;;;;;;;2.50;100.00;102377.00;8337524;28;20541;-62
2022/01/11 10:00:12;;;;;;;48.42;17.98;;;;;;;2.28;100.00;102383.84;8353176;28;20039;-62
2022/01/11 10:04:16;;;;;;;45.85;19.20;;;;;;;2.92;100.00;102372.16;8350817;28;20037;-62
2022/01/11 10:08:21;;;;;;;;;;;;;;;4.40;94.72;102365.31;8354193;28;20047;-62
2022/01/11 10:12:22;;;;;;;35.53;15.02;;;;;;;5.45;87.52;102361.13;8352612;28;19921;-62
2022/01/11 10:16:26;;;;;;;29.13;13.18;;;;;;;6.43;82.14;102351.50;8356093;28;20041;-62
2022/01/11 10:20:27;;;;;;;25.55;13.45;;;;;;;6.59;78.99;102366.81;8342471;28;20532;-62
2022/01/11 10:24:45;;;;;;;32.35;14.15;;;;;;;6.80;77.91;102360.44;8354281;28;20041;-62
2022/01/11 10:28:45;;;;;;;29.77;14.15;;;;;;;6.93;77.30;102372.41;8352134;28;20041;-62
2022/01/11 10:32:49;;;;;;;26.80;12.23;;;;;;;6.99;78.67;102353.28;8353742;28;20037;-62
2022/01/11 10:36:49;;;;;;;27.98;12.77;;;;;;;6.88;77.39;102350.22;8354142;28;20033;-63
2022/01/11 10:40:52;;;;;;;26.10;12.70;;;;;;;6.68;78.01;102357.47;8353353;28;20497;-63
2022/01/11 10:44:58;;;;;;;25.10;13.13;;;;;;;7.41;76.94;102356.56;8354861;28;20098;-63
2022/01/11 10:48:59;;;;;;;26.42;12.73;;;;;;;7.87;74.46;102347.91;8355039;28;20041;-63
2022/01/11 10:53:02;;;;;;;27.95;12.40;;;;;;;8.38;74.44;102346.19;8353542;28;20051;-63
2022/01/11 10:57:14;;;;;;;25.70;12.15;;;;;;;8.03;74.79;102350.69;8353434;28;20099;-63
2022/01/11 11:01:15;;;;;;;24.85;12.07;;;;;;;7.92;74.90;102348.56;8354122;28;20040;-63
2022/01/11 11:05:20;;;;;;;23.58;12.60;;;;;;;8.21;76.02;102341.66;8354869;28;20057;-63
2022/01/11 11:09:20;;;;;;;24.85;11.70;;;;;;;8.51;73.56;102347.25;8352730;28;20041;-63
2022/01/11 11:13:24;;;;;;;30.75;13.70;;;;;;;7.97;74.79;102356.41;8354224;28;20037;-63
2022/01/11 11:17:30;;;;;;;27.20;12.80;;;;;;;8.36;74.02;102359.75;8352114;28;20506;-63
2022/01/11 11:21:33;;;;;;;24.58;11.82;;;;;;;8.37;73.71;102349.81;8351894;28;20497;-63
2022/01/11 11:25:33;;;;;;;25.23;11.98;;;;;;;8.05;74.96;102355.03;8354331;28;20048;-63
2022/01/11 11:29:35;;;;;;;25.70;11.98;;;;;;;8.04;74.92;102361.38;8348514;28;20037;-63
2022/01/11 11:33:38;;;;;;;28.65;13.43;;;;;;;8.13;76.64;102362.72;8350373;28;20515;-63
2022/01/11 11:37:40;;;;;;;27.48;13.48;;;;;;;7.98;76.08;102359.00;8353346;28;20037;-63
2022/01/11 11:41:43;;;;;;;33.65;16.05;;;;;;;8.95;75.22;102356.47;8349987;28;20086;-63
2022/01/11 11:45:44;;;;;;;30.17;14.57;;;;;;;9.33;73.30;102366.00;8352196;28;20501;-63
2022/01/11 11:49:52;;;;;;;30.95;14.48;;;;;;;8.71;72.90;102371.28;8350241;28;20451;-63
2022/01/11 11:53:52;;;;;;;27.88;13.23;;;;;;;8.91;73.79;102368.41;8353415;28;20044;-63
2022/01/11 11:57:56;;;;;;;31.75;15.23;;;;;;;8.39;73.91;102374.88;8353601;28;20045;-63
2022/01/11 12:01:58;;;;;;;30.48;13.80;;;;;;;8.51;74.24;102371.53;8351195;28;20458;-63
2022/01/11 12:05:58;;;;;;;36.88;15.70;;;;;;;8.83;75.98;102365.25;8352806;28;20497;-63
2022/01/11 12:09:59;;;;;;;31.10;14.80;;;;;;;8.41;76.53;102351.38;8352858;28;20420;-63
2022/01/11 12:14:00;;;;;;;36.10;16.92;;;;;;;8.64;76.60;102359.13;8351111;28;20170;-63
2022/01/11 12:22:24;;;;;;;27.77;13.73;;;;;;;9.05;76.03;102355.00;8402098;27;20418;-62
2022/01/11 12:26:35;;;;;;;35.90;15.32;;;;;;;8.14;78.56;102347.44;8351161;28;20444;-62
2022/01/11 12:30:36;;;;;;;41.75;18.60;;;;;;;7.61;80.01;102352.88;8363291;28;20071;-62
2022/01/11 12:34:55;;;;;;;40.15;16.67;;;;;;;7.11;83.20;102341.91;8363775;28;20037;-62
2022/01/11 12:39:01;;;;;;;38.00;17.63;;;;;;;6.33;87.48;102337.59;8354374;28;20585;-62
2022/01/11 12:43:06;;;;;;;47.72;19.20;;;;;;;6.19;89.77;102342.69;8344631;28;20053;-62
2022/01/11 12:47:09;;;;;;;48.58;18.60;;;;;;;6.03;90.24;102340.78;8357596;28;20057;-62
2022/01/11 12:51:11;;;;;;;39.10;17.75;;;;;;;6.10;91.37;102324.31;8389716;28;20411;-62
2022/01/11 12:55:13;;;;;;;46.45;21.25;;;;;;;5.86;92.19;102328.09;8376110;28;20045;-62
2022/01/11 12:59:14;;;;;;;41.45;18.23;;;;;;;5.80;92.57;102326.50;8377612;28;20048;-62
2022/01/11 13:03:15;;;;;;;41.50;19.02;;;;;;;5.82;93.80;102321.97;8349803;28;20041;-62
2022/01/11 13:07:28;;;;;;;40.17;18.48;;;;;;;6.00;93.85;102331.03;8337936;28;20037;-62
2022/01/11 13:11:28;;;;;;;42.13;20.42;;;;;;;6.03;93.66;102325.53;8342234;28;20472;-62
2022/01/11 13:15:37;;;;;;;40.70;19.63;;;;;;;6.07;94.36;102327.13;8359623;28;20032;-62
2022/01/11 13:19:40;;;;;;;36.67;19.10;;;;;;;6.03;94.19;102322.00;8372653;28;20056;-62
2022/01/11 13:23:46;;;;;;;43.40;19.60;;;;;;;6.15;94.00;102318.72;8346510;28;20040;-62
2022/01/11 13:27:56;;;;;;;43.55;19.38;;;;;;;6.38;94.55;102319.47;8337910;28;20125;-62
2022/01/11 13:31:56;;;;;;;37.42;17.30;;;;;;;6.54;93.61;102323.19;8321117;28;20050;-62
2022/01/11 13:36:01;;;;;;;32.47;15.13;;;;;;;6.80;92.11;102320.13;8315791;28;20052;-62
2022/01/11 13:40:07;;;;;;;;;;;;;;;7.05;91.41;102326.06;8317175;28;20051;-62
2022/01/11 13:44:11;;;;;;;27.40;14.02;;;;;;;6.83;89.71;102319.13;8310106;28;19978;-63
2022/01/11 13:48:17;;;;;;;27.33;13.30;;;;;;;6.85;90.46;102312.72;8342269;28;20468;-62
2022/01/11 13:52:21;;;;;;;40.03;13.98;;;;;;;6.87;91.16;102310.84;8349556;28;20256;-63
2022/01/11 13:56:21;;;;;;;29.70;13.45;;;;;;;6.94;91.55;102311.41;8349509;28;20119;-62
2022/01/11 14:00:21;;;;;;;24.92;12.45;;;;;;;7.10;90.02;102310.59;8347292;28;20044;-62
2022/01/11 14:04:22;;;;;;;23.23;10.55;;;;;;;7.29;88.06;102314.13;8336051;28;20052;-62
2022/01/11 14:08:32;;;;;;;22.98;10.10;;;;;;;7.13;88.26;102309.56;8342208;28;20520;-62
2022/01/11 14:12:43;;;;;;;21.35;10.48;;;;;;;7.23;87.96;102308.19;8344343;28;20120;-62
2022/01/11 14:16:43;;;;;;;21.23;11.48;;;;;;;7.28;88.66;102307.00;8333148;28;20565;-63
2022/01/11 14:20:44;;;;;;;25.13;11.80;;;;;;;7.26;88.04;102308.03;8344036;28;20639;-63
2022/01/11 14:24:59;;;;;;;23.08;10.65;;;;;;;7.45;87.12;102304.34;8330894;28;20118;-63
2022/01/11 14:29:00;;;;;;;24.25;10.65;;;;;;;7.45;87.14;102306.16;8332296;28;20395;-63
2022/01/11 14:33:00;;;;;;;24.15;10.27;;;;;;;7.36;87.99;102315.56;8337674;28;20049;-63
2022/01/11 14:37:19;;;;;;;21.92;10.02;;;;;;;7.26;87.58;102306.19;8333409;28;20049;-63
2022/01/11 14:41:22;;;;;;;19.52;9.43;;;;;;;7.20;88.29;102306.50;8331639;28;20143;-63
2022/01/11 14:45:26;;;;;;;23.98;9.80;;;;;;;7.19;88.41;102312.84;8330263;28;20141;-63
2022/01/11 14:49:31;;;;;;;18.88;9.00;;;;;;;7.11;89.20;102314.16;8297068;28;20466;-63
2022/01/11 14:53:35;;;;;;;23.50;11.02;;;;;;;7.08;88.48;102317.84;8308234;28;20158;-63
2022/01/11 14:57:35;;;;;;;20.42;9.68;;;;;;;7.22;87.72;102318.06;8310696;28;20415;-63
2022/01/11 15:01:58;;;;;;;27.27;13.13;;;;;;;7.00;88.60;102319.19;8311354;28;20033;-63
2022/01/11 15:06:07;;;;;;;24.27;11.43;;;;;;;6.94;88.93;102336.47;8311332;28;20048;-62
2022/01/11 15:10:07;;;;;;;24.10;13.45;;;;;;;6.91;88.76;102333.06;8313843;28;20033;-62
2022/01/11 15:14:12;;;;;;;65.75;25.45;;;;;;;6.77;89.50;102335.56;8315962;28;20071;-62
2022/01/11 15:18:13;;;;;;;50.50;19.92;;;;;;;6.73;88.85;102344.69;8349080;28;20048;-62
2022/01/11 15:22:13;;;;;;;41.88;16.85;;;;;;;6.72;88.95;102343.81;8336138;28;20615;-63
2022/01/11 15:26:18;;;;;;;28.95;15.00;;;;;;;6.58;89.40;102346.28;8349474;28;20544;-63
2022/01/11 15:30:18;;;;;;;;;;;;;;;6.52;89.44;102345.69;8343751;28;20459;-63
2022/01/11 15:34:19;;;;;;;22.30;8.85;;;;;;;6.40;90.02;102339.03;8326032;28;20003;-63
2022/01/11 15:38:20;;;;;;;22.80;11.85;;;;;;;6.33;89.98;102336.69;8330548;28;20091;-63
2022/01/11 15:42:20;;;;;;;22.02;11.13;;;;;;;6.25;90.49;102337.06;8334117;28;20033;-63
2022/01/11 15:46:21;;;;;;;20.60;9.52;;;;;;;6.18;90.79;102346.31;8333205;28;20045;-63
2022/01/11 15:50:21;;;;;;;21.40;10.25;;;;;;;5.97;91.26;102344.59;8331979;28;20047;-63
2022/01/11 15:54:22;;;;;;;23.55;11.35;;;;;;;5.81;92.82;102356.88;8338127;28;20067;-63
2022/01/11 15:58:23;;;;;;;27.90;12.65;;;;;;;5.70;92.77;102353.78;8337426;28;20029;-63
2022/01/11 16:02:25;;;;;;;23.13;9.05;;;;;;;5.61;93.00;102360.41;8350011;28;20151;-63
2022/01/11 16:06:26;;;;;;;23.48;9.95;;;;;;;5.43;93.77;102365.69;8341906;28;20040;-63
2022/01/11 16:10:28;;;;;;;23.77;9.73;;;;;;;5.34;93.85;102366.06;8333034;28;20056;-63
2022/01/11 16:14:30;;;;;;;20.98;10.00;;;;;;;5.18;94.14;102364.91;8339993;28;20438;-63
2022/01/11 16:18:30;;;;;;;22.83;9.90;;;;;;;5.05;94.60;102360.97;8335971;28;20128;-63
2022/01/11 16:22:31;;;;;;;23.25;11.57;;;;;;;4.96;94.94;102364.00;8333307;28;20539;-62
2022/01/11 16:26:34;;;;;;;23.15;10.75;;;;;;;4.74;95.14;102363.09;8337944;28;20405;-62
2022/01/11 16:30:38;;;;;;;22.15;11.02;;;;;;;4.63;95.87;102362.66;8341095;28;20041;-62
2022/01/11 16:34:38;;;;;;;20.52;10.93;;;;;;;4.47;96.18;102358.78;8341886;28;20095;-63
2022/01/11 16:38:39;;;;;;;31.60;14.75;;;;;;;4.35;97.42;102360.13;8338048;28;20037;-63
2022/01/11 16:42:40;;;;;;;30.42;13.98;;;;;;;4.28;98.23;102366.63;8340807;28;20045;-63
2022/01/11 16:46:41;;;;;;;27.90;13.85;;;;;;;4.06;99.48;102363.84;8340317;28;20041;-63
2022/01/11 16:50:42;;;;;;;33.67;16.13;;;;;;;3.97;100.00;102374.00;8340729;28;20041;-63
2022/01/11 16:54:44;;;;;;;35.97;16.83;;;;;;;3.81;100.00;102381.69;8341240;28;20037;-63
2022/01/11 16:58:44;;;;;;;32.38;15.07;;;;;;;3.79;100.00;102375.50;8341259;28;20768;-63
2022/01/11 17:02:45;;;;;;;34.50;16.05;;;;;;;3.75;100.00;102372.97;8341069;28;20424;-62
2022/01/11 17:06:45;;;;;;;29.10;13.98;;;;;;;3.70;100.00;102373.16;8343712;28;20051;-62
2022/01/11 17:10:46;;;;;;;27.23;14.70;;;;;;;3.69;100.00;102389.28;8345788;28;20044;-62
2022/01/11 17:14:46;;;;;;;35.42;16.38;;;;;;;3.47;100.00;102393.53;8348187;28;20044;-62
2022/01/11 17:18:47;;;;;;;34.58;17.63;;;;;;;3.45;100.00;102401.63;8340713;28;20129;-62
2022/01/11 17:22:48;;;;;;;40.75;19.40;;;;;;;3.36;100.00;102401.91;8343322;28;20098;-63
2022/01/11 17:26:49;;;;;;;42.70;18.55;;;;;;;3.28;100.00;102403.97;8342831;28;20114;-63
2022/01/11 17:30:50;;;;;;;48.05;20.13;;;;;;;3.28;100.00;102403.97;8345628;28;20093;-62
2022/01/11 17:34:51;;;;;;;54.67;25.30;;;;;;;3.15;100.00;102402.63;8346821;28;20110;-62
2022/01/11 17:38:51;;;;;;;63.55;29.02;;;;;;;3.10;100.00;102417.03;8344665;28;20500;-63
2022/01/11 17:42:52;;;;;;;43.20;19.85;;;;;;;3.01;100.00;102420.84;8346048;28;20494;-63
2022/01/11 17:46:53;;;;;;;43.22;19.83;;;;;;;2.87;100.00;102423.06;8347501;28;20512;-63
2022/01/11 17:50:54;;;;;;;43.47;21.17;;;;;;;2.94;100.00;102431.78;8344106;28;20448;-63
2022/01/11 17:54:54;;;;;;;66.85;28.55;;;;;;;2.82;100.00;102424.13;8345397;28;20045;-62
2022/01/11 17:58:57;;;;;;;63.90;27.58;;;;;;;2.93;100.00;102438.03;8345117;28;20051;-63
2022/01/11 18:02:57;;;;;;;48.08;23.50;;;;;;;2.96;100.00;102433.47;8342795;28;20049;-63
2022/01/11 18:06:58;;;;;;;41.67;19.20;;;;;;;3.03;100.00;102432.38;8345043;28;20041;-63
2022/01/11 18:10:58;;;;;;;45.55;20.58;;;;;;;2.97;100.00;102429.88;8344270;28;20033;-63
2022/01/11 18:15:01;;;;;;;49.10;20.77;;;;;;;2.88;100.00;102446.19;8344024;28;20037;-63
2022/01/11 18:19:02;;;;;;;42.45;17.98;;;;;;;2.85;100.00;102451.63;8343607;28;20048;-62
2022/01/11 18:23:02;;;;;;;39.17;17.23;;;;;;;2.84;100.00;102455.19;8341943;28;20037;-62